createdAt,value
2019-01-25T00:00:38.625Z,-1.62
2019-01-25T00:03:10.281Z,-1.50
2019-01-25T00:05:38.434Z,-1.52
2019-01-25T00:08:07.448Z,-1.43
2019-01-25T00:10:36.482Z,-1.47
2019-01-25T00:13:05.489Z,-1.55
2019-01-25T00:15:34.516Z,-1.48
2019-01-25T00:18:03.542Z,-1.51
2019-01-25T00:20:32.572Z,-1.58
2019-01-25T00:23:01.587Z,-1.66
2019-01-25T00:25:30.656Z,-1.61
2019-01-25T00:27:59.666Z,-1.64
2019-01-25T00:30:28.674Z,-1.96
2019-01-25T00:32:57.655Z,-1.60
2019-01-25T00:35:26.720Z,-1.73
2019-01-25T00:37:55.803Z,-1.82
2019-01-25T00:40:24.804Z,-1.52
2019-01-25T00:42:53.814Z,-1.85
2019-01-25T00:45:22.864Z,-1.54
2019-01-25T00:47:51.850Z,-1.57
2019-01-25T00:50:20.981Z,-1.47
2019-01-25T00:52:50.036Z,-1.51
2019-01-25T00:55:19.197Z,-1.58
2019-01-25T00:57:48.208Z,-1.80
2019-01-25T01:00:19.801Z,-2.04
2019-01-25T01:02:48.845Z,-1.80
2019-01-25T01:05:17.949Z,-1.71
2019-01-25T01:07:48.715Z,-1.62
2019-01-25T01:10:17.726Z,-1.76
2019-01-25T01:12:46.754Z,-1.63
2019-01-25T01:15:15.768Z,-1.56
2019-01-25T01:17:44.850Z,-1.72
2019-01-25T01:20:15.822Z,-1.75
2019-01-25T01:22:44.830Z,-1.81
2019-01-25T01:25:14.368Z,-1.71
2019-01-25T01:27:43.425Z,-1.67
2019-01-25T01:30:15.795Z,-1.62
2019-01-25T01:32:44.825Z,-2.00
2019-01-25T01:35:13.834Z,-2.00
2019-01-25T01:37:42.879Z,-1.71
2019-01-25T01:40:23.019Z,-1.81
2019-01-25T01:42:52.152Z,-1.88
2019-01-25T01:45:21.283Z,-1.68
2019-01-25T01:47:50.277Z,-1.73
2019-01-25T01:50:19.412Z,-1.81
2019-01-25T01:52:49.338Z,-1.79
2019-01-25T01:55:18.322Z,-1.84
2019-01-25T01:57:47.324Z,-1.80
2019-01-25T02:00:24.529Z,-1.83
2019-01-25T02:02:53.523Z,-1.78
2019-01-25T02:05:22.604Z,-1.74
2019-01-25T02:07:51.586Z,-2.12
2019-01-25T02:10:29.436Z,-2.03
2019-01-25T02:12:56.302Z,-2.05
2019-01-25T02:15:25.578Z,-1.95
2019-01-25T02:17:55.110Z,-2.27
2019-01-25T02:20:29.575Z,-2.17
2019-01-25T02:22:58.562Z,-2.08
2019-01-25T02:25:27.566Z,-1.84
2019-01-25T02:27:56.602Z,-1.81
2019-01-25T02:30:26.573Z,-2.01
2019-01-25T02:32:55.560Z,-2.09
2019-01-25T02:35:24.593Z,-1.73
2019-01-25T02:37:53.570Z,-1.69
2019-01-25T02:40:24.492Z,-1.86
2019-01-25T02:42:53.661Z,-1.94
2019-01-25T02:45:22.815Z,-1.90
2019-01-25T02:47:51.806Z,-1.89
2019-01-25T02:50:20.821Z,-1.74
2019-01-25T02:52:49.810Z,-2.22
2019-01-25T02:55:18.857Z,-2.02
2019-01-25T02:57:47.847Z,-1.95
2019-01-25T03:00:21.649Z,-2.05
2019-01-25T03:02:50.634Z,-1.84
2019-01-25T03:05:20.147Z,-2.08
2019-01-25T03:07:49.457Z,-2.06
2019-01-25T03:10:18.742Z,-2.33
2019-01-25T03:12:47.779Z,-2.22
2019-01-25T03:15:18.781Z,-2.02
2019-01-25T03:17:47.923Z,-2.00
2019-01-25T03:20:16.947Z,-1.98
2019-01-25T03:22:45.978Z,-2.20
2019-01-25T03:25:17.719Z,-2.21
2019-01-25T03:27:46.752Z,-2.22
2019-01-25T03:30:17.572Z,-1.97
2019-01-25T03:32:46.673Z,-1.89
2019-01-25T03:35:15.896Z,-1.95
2019-01-25T03:37:44.917Z,-2.01
2019-01-25T03:40:16.773Z,-2.36
2019-01-25T03:42:45.832Z,-2.26
2019-01-25T03:45:15.092Z,-2.00
2019-01-25T03:47:44.208Z,-2.16
2019-01-25T03:50:14.927Z,-2.05
2019-01-25T03:52:43.969Z,-2.03
2019-01-25T03:55:13.541Z,-1.74
2019-01-25T03:57:42.569Z,-2.01
2019-01-25T04:00:14.686Z,-1.94
2019-01-25T04:02:43.754Z,-1.88
2019-01-25T04:05:13.484Z,-1.97
2019-01-25T04:07:42.536Z,-2.28
2019-01-25T04:10:13.247Z,-2.27
2019-01-25T04:12:42.311Z,-2.13
2019-01-25T04:15:14.273Z,-2.35
2019-01-25T04:17:43.335Z,-2.38
2019-01-25T04:20:14.100Z,-2.03
2019-01-25T04:22:43.156Z,-1.95
2019-01-25T04:25:14.462Z,-2.08
2019-01-25T04:27:43.478Z,-2.05
2019-01-25T04:30:15.829Z,-2.13
2019-01-25T04:32:44.880Z,-2.03
2019-01-25T04:35:13.955Z,-1.88
2019-01-25T04:37:42.996Z,-1.88
2019-01-25T04:40:14.069Z,-1.99
2019-01-25T04:42:43.120Z,-2.01
2019-01-25T04:45:14.016Z,-1.83
2019-01-25T04:47:43.047Z,-1.72
2019-01-25T04:50:14.962Z,-1.95
2019-01-25T04:52:43.976Z,-1.83
2019-01-25T04:55:23.990Z,-1.91
2019-01-25T04:57:53.136Z,-1.77
2019-01-25T05:00:23.019Z,-1.74
2019-01-25T05:02:56.985Z,-1.92
2019-01-25T05:05:26.082Z,-1.91
2019-01-25T05:08:02.953Z,-1.59
2019-01-25T05:10:32.316Z,-1.71
2019-01-25T05:13:01.359Z,-1.76
2019-01-25T05:15:30.608Z,-1.84
2019-01-25T05:17:59.640Z,-1.78
2019-01-25T05:20:28.758Z,-1.69
2019-01-25T05:22:59.003Z,-1.66
2019-01-25T05:25:28.492Z,-1.61
2019-01-25T05:27:57.609Z,-1.77
2019-01-25T05:30:26.764Z,-1.41
2019-01-25T05:32:55.837Z,-1.34
2019-01-25T05:35:25.045Z,-1.53
2019-01-25T05:37:54.184Z,-1.69
2019-01-25T05:40:25.094Z,-1.66
2019-01-25T05:42:54.188Z,-1.61
2019-01-25T05:45:23.280Z,-1.83
2019-01-25T05:47:52.367Z,-1.59
2019-01-25T05:50:21.438Z,-1.52
2019-01-25T05:52:50.501Z,-1.45
2019-01-25T05:55:20.903Z,-1.61
2019-01-25T05:57:49.972Z,-1.66
2019-01-25T06:00:27.650Z,-1.68
2019-01-25T06:02:57.502Z,-1.74
2019-01-25T06:05:26.530Z,-1.78
2019-01-25T06:07:55.675Z,-1.50
2019-01-25T06:10:24.790Z,-1.66
2019-01-25T06:12:54.708Z,-1.53
2019-01-25T06:15:25.482Z,-1.48
2019-01-25T06:17:54.526Z,-1.58
2019-01-25T06:20:23.537Z,-1.56
2019-01-25T06:22:54.177Z,-1.44
2019-01-25T06:25:23.237Z,-1.50
2019-01-25T06:27:52.237Z,-1.37
2019-01-25T06:30:21.277Z,-1.53
2019-01-25T06:32:50.300Z,-1.61
2019-01-25T06:35:19.342Z,-1.49
2019-01-25T06:37:48.389Z,-1.45
2019-01-25T06:40:17.514Z,-1.28
2019-01-25T06:42:46.534Z,-1.27
2019-01-25T06:45:15.595Z,-1.22
2019-01-25T06:47:44.626Z,-1.27
2019-01-25T06:50:13.771Z,-1.51
2019-01-25T06:52:42.863Z,-1.27
2019-01-25T06:55:11.908Z,-1.34
2019-01-25T06:58:00.552Z,-1.35
2019-01-25T07:00:30.126Z,-1.42
2019-01-25T07:02:59.147Z,-1.42
2019-01-25T07:05:28.190Z,-1.26
2019-01-25T07:07:57.217Z,-1.20
2019-01-25T07:10:26.271Z,-1.17
2019-01-25T07:12:55.272Z,-1.30
2019-01-25T07:15:24.766Z,-1.06
2019-01-25T07:17:53.824Z,-1.06
2019-01-25T07:20:22.916Z,-1.02
2019-01-25T07:22:51.979Z,-1.20
2019-01-25T07:25:21.126Z,-0.98
2019-01-25T07:27:50.127Z,-1.08
2019-01-25T07:30:19.172Z,-1.02
2019-01-25T07:32:48.184Z,-0.99
2019-01-25T07:35:17.223Z,-1.00
2019-01-25T07:37:46.267Z,-0.99
2019-01-25T07:40:15.334Z,-1.03
2019-01-25T07:42:44.605Z,-0.97
2019-01-25T07:45:13.621Z,-0.93
2019-01-25T07:47:42.694Z,-0.80
2019-01-25T07:50:11.678Z,-0.82
2019-01-25T07:52:40.710Z,-0.84
2019-01-25T07:55:09.770Z,-0.81
2019-01-25T07:57:38.845Z,-0.92
2019-01-25T08:00:08.474Z,-0.83
2019-01-25T08:02:37.565Z,-0.80
2019-01-25T08:05:08.056Z,-0.76
2019-01-25T08:07:37.213Z,-0.66
2019-01-25T08:10:07.588Z,-0.57
2019-01-25T08:12:36.815Z,-0.72
2019-01-25T08:15:08.231Z,-0.56
2019-01-25T08:17:37.370Z,-0.53
2019-01-25T08:20:08.492Z,-0.51
2019-01-25T08:22:37.671Z,-0.55
2019-01-25T08:25:07.786Z,-0.54
2019-01-25T08:27:36.965Z,-0.45
2019-01-25T08:30:08.234Z,-0.36
2019-01-25T08:32:37.455Z,-0.23
2019-01-25T08:35:09.190Z,-0.44
2019-01-25T08:37:38.454Z,-0.37
2019-01-25T08:40:09.309Z,-0.35
2019-01-25T08:42:38.364Z,-0.36
2019-01-25T08:45:09.390Z,-0.37
2019-01-25T08:47:38.463Z,-0.40
2019-01-25T08:50:11.732Z,-0.18
2019-01-25T08:52:40.717Z,-0.11
2019-01-25T08:55:09.806Z,-0.25
2019-01-25T08:57:38.853Z,-0.22
2019-01-25T09:00:11.828Z,-0.15
2019-01-25T09:02:40.893Z,-0.11
2019-01-25T09:05:10.780Z,-0.11
2019-01-25T09:07:40.149Z,0.05
2019-01-25T09:10:12.211Z,0.04
2019-01-25T09:12:41.250Z,0.09
2019-01-25T09:15:13.171Z,0.02
2019-01-25T09:17:42.352Z,0.14
2019-01-25T09:20:14.718Z,0.16
2019-01-25T09:22:43.754Z,0.13
2019-01-25T09:25:12.829Z,0.26
2019-01-25T09:27:41.868Z,0.17
2019-01-25T09:30:13.770Z,0.29
2019-01-25T09:32:43.793Z,0.39
2019-01-25T09:35:12.999Z,0.47
2019-01-25T09:37:42.081Z,0.48
2019-01-25T09:40:14.116Z,0.60
2019-01-25T09:42:43.143Z,0.68
2019-01-25T09:45:12.226Z,0.68
2019-01-25T09:47:41.324Z,0.88
2019-01-25T09:50:12.714Z,0.71
2019-01-25T09:52:41.760Z,0.70
2019-01-25T09:55:13.877Z,0.59
2019-01-25T09:57:43.044Z,0.60
2019-01-25T10:00:19.426Z,0.46
2019-01-25T10:02:48.513Z,0.72
2019-01-25T10:05:17.653Z,0.78
2019-01-25T10:07:46.737Z,0.82
2019-01-25T10:10:16.076Z,0.87
2019-01-25T10:12:45.162Z,1.03
2019-01-25T10:15:16.917Z,1.20
2019-01-25T10:17:46.007Z,1.40
2019-01-25T10:20:15.173Z,1.33
2019-01-25T10:22:44.200Z,1.64
2019-01-25T10:25:13.266Z,1.60
2019-01-25T10:27:42.316Z,1.55
2019-01-25T10:30:14.158Z,1.66
2019-01-25T10:32:43.230Z,1.70
2019-01-25T10:35:12.386Z,2.07
2019-01-25T10:37:41.431Z,1.96
2019-01-25T10:40:13.323Z,2.09
2019-01-25T10:42:45.540Z,1.97
2019-01-25T10:45:25.810Z,1.83
2019-01-25T10:47:54.907Z,2.01
2019-01-25T10:50:23.964Z,1.91
2019-01-25T10:52:53.015Z,1.90
2019-01-25T10:55:22.057Z,1.97
2019-01-25T10:57:51.165Z,2.22
2019-01-25T11:00:20.242Z,2.12
2019-01-25T11:02:49.268Z,2.15
2019-01-25T11:05:20.579Z,2.07
2019-01-25T11:07:49.614Z,2.22
2019-01-25T11:10:18.684Z,2.14
2019-01-25T11:12:47.737Z,2.11
2019-01-25T11:15:19.000Z,2.21
2019-01-25T11:17:48.578Z,2.20
2019-01-25T11:20:19.763Z,2.16
2019-01-25T11:22:48.834Z,2.43
2019-01-25T11:25:38.608Z,2.28
2019-01-25T11:28:07.632Z,2.17
2019-01-25T11:30:36.690Z,1.93
2019-01-25T11:33:05.818Z,2.02
2019-01-25T11:35:34.905Z,2.01
2019-01-25T11:38:03.983Z,1.98
2019-01-25T11:40:35.745Z,1.93
2019-01-25T11:43:08.958Z,1.95
2019-01-25T11:45:35.826Z,2.11
2019-01-25T11:48:06.724Z,2.12
2019-01-25T11:50:35.790Z,2.45
2019-01-25T11:53:04.875Z,2.32
2019-01-25T11:55:33.949Z,2.24
2019-01-25T11:58:03.006Z,2.22
2019-01-25T12:00:32.749Z,2.62
2019-01-25T12:03:01.811Z,2.59
2019-01-25T12:05:30.909Z,2.62
2019-01-25T12:07:59.961Z,2.51
2019-01-25T12:10:30.148Z,2.48
2019-01-25T12:12:59.178Z,2.74
2019-01-25T12:15:28.244Z,2.64
2019-01-25T12:17:57.284Z,2.64
2019-01-25T12:20:28.436Z,2.72
2019-01-25T12:22:57.534Z,2.71
2019-01-25T12:25:26.622Z,2.85
2019-01-25T12:27:55.674Z,2.80
2019-01-25T12:30:29.542Z,3.15
2019-01-25T12:32:58.656Z,2.52
2019-01-25T12:35:28.849Z,2.71
2019-01-25T12:37:57.947Z,2.65
2019-01-25T12:40:27.009Z,2.86
2019-01-25T12:42:56.146Z,3.03
2019-01-25T12:45:26.466Z,3.03
2019-01-25T12:47:55.542Z,2.92
2019-01-25T12:50:27.653Z,3.45
2019-01-25T12:52:56.714Z,3.55
2019-01-25T12:55:25.819Z,3.29
2019-01-25T12:57:54.894Z,3.48
2019-01-25T13:00:24.356Z,3.47
2019-01-25T13:02:53.655Z,3.18
2019-01-25T13:05:23.557Z,3.35
2019-01-25T13:07:52.750Z,3.22
2019-01-25T13:10:22.236Z,3.27
2019-01-25T13:12:51.392Z,3.43
2019-01-25T13:15:20.512Z,3.55
2019-01-25T13:17:49.879Z,3.27
2019-01-25T13:20:21.271Z,3.09
2019-01-25T13:22:50.364Z,3.52
2019-01-25T13:25:19.485Z,3.23
2019-01-25T13:27:48.631Z,3.16
2019-01-25T13:30:20.132Z,3.38
2019-01-25T13:32:52.055Z,3.31
2019-01-25T13:35:21.273Z,3.39
2019-01-25T13:37:50.495Z,3.19
2019-01-25T13:40:20.948Z,3.40
2019-01-25T13:42:51.216Z,3.18
2019-01-25T13:46:07.968Z,3.13
2019-01-25T13:48:40.597Z,3.09
2019-01-25T13:51:23.190Z,3.35
2019-01-25T13:53:51.503Z,3.40
2019-01-25T13:56:23.599Z,3.12
2019-01-25T13:59:09.123Z,3.51
2019-01-25T14:01:48.715Z,3.54
2019-01-25T14:04:17.863Z,3.41
2019-01-25T14:06:46.904Z,3.42
2019-01-25T14:09:16.909Z,3.55
2019-01-25T14:11:46.162Z,3.62
2019-01-25T14:14:15.290Z,3.60
2019-01-25T14:16:44.381Z,3.62
2019-01-25T14:19:13.469Z,3.50
2019-01-25T14:21:42.673Z,3.64
2019-01-25T14:24:16.466Z,3.53
2019-01-25T14:26:42.628Z,3.63
2019-01-25T14:29:11.787Z,3.44
2019-01-25T14:31:40.869Z,3.53
2019-01-25T14:34:09.912Z,3.38
2019-01-25T14:36:39.032Z,3.23
2019-01-25T14:39:09.126Z,3.21
2019-01-25T14:41:38.246Z,3.27
2019-01-25T14:44:07.341Z,3.30
2019-01-25T14:46:36.570Z,3.41
2019-01-25T14:49:05.656Z,3.42
2019-01-25T14:51:34.785Z,3.55
2019-01-25T14:54:03.916Z,3.52
2019-01-25T14:56:33.046Z,3.58
2019-01-25T14:59:02.134Z,3.44
2019-01-25T15:01:31.235Z,3.52
2019-01-25T15:04:00.469Z,3.34
2019-01-25T15:06:29.488Z,3.45
2019-01-25T15:08:58.596Z,3.45
2019-01-25T15:11:27.846Z,3.25
2019-01-25T15:14:02.240Z,3.27
2019-01-25T15:16:27.738Z,3.28
2019-01-25T15:18:56.801Z,3.18
2019-01-25T15:21:25.860Z,3.25
2019-01-25T15:23:55.033Z,3.23
2019-01-25T15:26:24.068Z,3.12
2019-01-25T15:28:53.166Z,3.32
2019-01-25T15:31:22.273Z,3.23
2019-01-25T15:33:51.441Z,3.18
2019-01-25T15:36:20.536Z,3.06
2019-01-25T15:38:49.683Z,2.98
2019-01-25T15:41:18.765Z,2.91
2019-01-25T15:43:48.101Z,2.91
2019-01-25T15:46:17.275Z,2.75
2019-01-25T15:48:46.459Z,2.72
2019-01-25T15:51:15.738Z,2.80
2019-01-25T15:53:44.892Z,2.65
2019-01-25T15:56:13.980Z,2.62
2019-01-25T15:58:54.344Z,2.70
2019-01-25T16:01:23.445Z,2.73
2019-01-25T16:03:52.583Z,2.61
2019-01-25T16:06:21.786Z,2.63
2019-01-25T16:08:50.881Z,2.69
2019-01-25T16:12:17.791Z,2.68
2019-01-25T16:15:33.370Z,2.63
2019-01-25T16:18:02.509Z,2.67
2019-01-25T16:24:27.892Z,2.69
2019-01-25T16:26:57.094Z,2.71
2019-01-25T16:29:26.315Z,2.65
2019-01-25T16:31:55.554Z,2.66
2019-01-25T16:34:24.886Z,2.65
2019-01-25T16:36:54.022Z,2.57
2019-01-25T16:40:05.530Z,2.62
2019-01-25T16:42:46.243Z,2.67
2019-01-25T16:45:35.829Z,2.80
2019-01-25T16:48:05.232Z,2.75
2019-01-25T16:50:34.675Z,2.75
2019-01-25T16:53:03.858Z,2.75
2019-01-25T16:55:37.276Z,2.80
2019-01-25T16:58:06.795Z,2.85
2019-01-25T17:00:39.018Z,2.85
2019-01-25T17:03:08.249Z,2.86
2019-01-25T17:05:37.500Z,2.93
2019-01-25T17:08:06.840Z,2.86
2019-01-25T17:10:36.260Z,2.96
2019-01-25T17:13:05.814Z,2.87
2019-01-25T17:15:35.114Z,2.91
2019-01-25T17:18:04.330Z,2.98
2019-01-25T17:20:33.520Z,2.89
2019-01-25T17:23:02.810Z,2.98
2019-01-25T17:25:31.993Z,2.91
2019-01-25T17:28:01.158Z,2.99
2019-01-25T17:30:32.524Z,2.90
2019-01-25T17:33:02.326Z,2.89
2019-01-25T17:35:31.980Z,2.82
2019-01-25T17:38:01.341Z,2.90
2019-01-25T17:40:32.429Z,2.83
2019-01-25T17:46:36.525Z,2.93
2019-01-25T17:49:05.673Z,3.01
2019-01-25T17:51:34.800Z,2.92
2019-01-25T17:54:28.224Z,2.96
2019-01-25T17:56:56.523Z,3.01
2019-01-25T17:59:26.599Z,2.92
2019-01-25T18:01:55.712Z,3.01
2019-01-25T18:04:25.031Z,3.04
2019-01-25T18:06:54.228Z,3.04
2019-01-25T18:09:23.442Z,2.94
2019-01-25T18:11:52.832Z,3.00
2019-01-25T18:14:25.612Z,3.08
2019-01-25T18:16:54.726Z,2.97
2019-01-25T18:19:23.911Z,3.01
2019-01-25T18:21:53.085Z,2.97
2019-01-25T18:24:22.329Z,3.00
2019-01-25T18:26:51.499Z,2.87
2019-01-25T18:29:31.759Z,3.07
2019-01-25T18:32:00.881Z,2.97
2019-01-25T18:34:30.013Z,2.90
2019-01-25T18:36:59.608Z,2.93
2019-01-25T18:39:28.683Z,3.08
2019-01-25T18:41:57.918Z,2.97
2019-01-25T18:44:27.665Z,2.86
2019-01-25T18:46:56.766Z,2.94
2019-01-25T18:49:25.908Z,2.98
2019-01-25T18:51:55.108Z,3.03
2019-01-25T18:54:24.222Z,3.08
2019-01-25T18:56:56.144Z,3.12
2019-01-25T18:59:25.265Z,3.08
2019-01-25T19:01:54.587Z,3.16
2019-01-25T19:04:23.697Z,3.20
2019-01-25T19:06:53.128Z,3.11
2019-01-25T19:09:22.361Z,3.20
2019-01-25T19:11:51.850Z,3.15
2019-01-25T19:14:21.227Z,3.15
2019-01-25T19:16:50.480Z,3.13
2019-01-25T19:19:19.748Z,3.14
2019-01-25T19:21:49.042Z,3.13
2019-01-25T19:24:18.561Z,3.17
2019-01-25T19:26:47.887Z,3.08
2019-01-25T19:29:17.293Z,3.09
2019-01-25T19:31:49.067Z,3.09
2019-01-25T19:34:18.387Z,3.13
2019-01-25T19:36:47.959Z,3.10
2019-01-25T19:39:17.313Z,3.17
2019-01-25T19:41:47.744Z,3.17
2019-01-25T19:44:19.406Z,3.10
2019-01-25T19:46:49.270Z,3.11
2019-01-25T19:49:19.880Z,3.26
2019-01-25T19:51:54.287Z,3.22
2019-01-25T19:54:23.650Z,3.25
2019-01-25T19:56:52.922Z,3.22
2019-01-25T19:59:22.038Z,3.24
2019-01-25T20:01:51.338Z,3.36
2019-01-25T20:04:20.534Z,3.33
2019-01-25T20:06:52.727Z,3.31
2019-01-25T20:09:21.892Z,3.30
2019-01-25T20:11:52.923Z,3.39
2019-01-25T20:14:22.131Z,3.72
2019-01-25T20:16:54.434Z,3.49
2019-01-25T20:19:24.664Z,3.47
2019-01-25T20:21:53.879Z,3.69
2019-01-25T20:24:23.872Z,3.64
2019-01-25T20:26:53.043Z,3.47
2019-01-25T20:29:22.269Z,3.52
2019-01-25T20:31:51.472Z,3.58
2019-01-25T20:34:20.660Z,3.59
2019-01-25T20:36:49.851Z,3.65
2019-01-25T20:39:19.180Z,3.56
2019-01-25T20:41:48.430Z,3.57
2019-01-25T20:44:17.728Z,3.57
2019-01-25T20:46:46.861Z,3.60
2019-01-25T20:49:16.032Z,3.53
2019-01-25T20:51:45.229Z,3.54
2019-01-25T20:54:14.378Z,3.49
2019-01-25T20:56:43.577Z,3.47
2019-01-25T21:00:13.233Z,3.58
2019-01-25T21:02:51.865Z,3.56
2019-01-25T21:05:21.264Z,3.60
2019-01-25T21:07:50.383Z,3.67
2019-01-25T21:10:28.730Z,3.64
2019-01-25T21:13:00.800Z,3.76
2019-01-25T21:15:35.150Z,3.69
2019-01-25T21:18:10.292Z,3.77
2019-01-25T21:21:10.953Z,3.76
2019-01-25T21:24:30.545Z,3.73
2019-01-25T21:27:01.566Z,3.82
2019-01-25T21:29:30.623Z,3.60
2019-01-25T21:31:59.865Z,3.64
2019-01-25T21:34:29.054Z,3.80
2019-01-25T21:37:00.130Z,3.65
2019-01-25T21:39:29.348Z,4.12
2019-01-25T21:41:59.761Z,3.83
2019-01-25T21:44:28.861Z,3.86
2019-01-25T21:46:58.571Z,3.84
2019-01-25T21:49:27.743Z,3.92
2019-01-25T21:51:56.938Z,4.01
2019-01-25T21:54:26.163Z,4.01
2019-01-25T21:56:57.289Z,4.05
2019-01-25T21:59:26.471Z,4.01
2019-01-25T22:01:55.715Z,4.04
2019-01-25T22:04:25.851Z,4.11
2019-01-25T22:06:55.226Z,4.04
2019-01-25T22:09:24.419Z,4.13
2019-01-25T22:11:53.572Z,4.15
2019-01-25T22:14:22.760Z,4.20
2019-01-25T22:16:51.926Z,4.23
2019-01-25T22:19:22.223Z,4.21
2019-01-25T22:21:54.505Z,4.29
2019-01-25T22:27:47.918Z,4.29
2019-01-25T22:30:19.402Z,4.33
2019-01-25T22:32:49.684Z,4.33
2019-01-25T22:35:18.980Z,4.46
2019-01-25T22:38:07.217Z,4.50
2019-01-25T22:40:36.432Z,4.48
2019-01-25T22:43:05.602Z,4.50
2019-01-25T22:45:34.834Z,4.50
2019-01-25T22:48:04.873Z,4.53
2019-01-25T22:50:36.333Z,4.63
2019-01-25T22:53:05.636Z,4.60
2019-01-25T22:55:34.839Z,4.64
2019-01-25T22:58:04.014Z,4.76
2019-01-25T23:01:04.238Z,4.74
2019-01-25T23:04:00.327Z,4.75
2019-01-25T23:06:42.088Z,4.76
2019-01-25T23:09:27.162Z,4.75
2019-01-25T23:11:56.356Z,4.77
2019-01-25T23:14:25.641Z,4.81
2019-01-25T23:16:54.788Z,4.79
2019-01-25T23:19:24.024Z,4.79
2019-01-25T23:21:53.291Z,4.80
2019-01-25T23:24:22.375Z,4.87
2019-01-25T23:26:51.527Z,4.86
2019-01-25T23:29:20.671Z,4.81
2019-01-25T23:31:51.859Z,4.92
2019-01-25T23:34:21.002Z,4.99
2019-01-25T23:36:50.155Z,4.95
2019-01-25T23:39:19.329Z,5.00
2019-01-25T23:42:46.978Z,5.01
2019-01-25T23:45:55.157Z,5.05
2019-01-25T23:48:24.298Z,5.07
2019-01-25T23:51:01.330Z,5.15
2019-01-25T23:53:30.484Z,5.16
2019-01-25T23:55:59.643Z,5.10
2019-01-25T23:58:28.798Z,5.22
